createdAt,value
2023-06-26T00:00:15.082Z,24.70
2023-06-26T00:02:41.769Z,24.77
2023-06-26T00:05:08.784Z,24.71
2023-06-26T00:07:35.475Z,24.80
2023-06-26T00:10:05.946Z,24.77
2023-06-26T00:12:32.857Z,24.80
2023-06-26T00:14:59.529Z,24.77
2023-06-26T00:17:26.188Z,24.76
2023-06-26T00:19:52.817Z,24.74
2023-06-26T00:22:19.883Z,24.72
2023-06-26T00:24:46.533Z,24.68
2023-06-26T00:27:13.351Z,24.64
2023-06-26T00:29:40.021Z,24.66
2023-06-26T00:32:07.489Z,24.64
2023-06-26T00:34:34.155Z,24.53
2023-06-26T00:37:00.846Z,24.63
2023-06-26T00:39:27.515Z,24.65
2023-06-26T00:41:54.153Z,24.48
2023-06-26T00:44:20.786Z,24.49
2023-06-26T00:46:47.897Z,24.46
2023-06-26T00:49:14.577Z,24.44
2023-06-26T00:51:41.189Z,24.37
2023-06-26T00:54:07.777Z,24.35
2023-06-26T00:56:34.364Z,24.26
2023-06-26T00:59:00.982Z,24.20
2023-06-26T01:01:27.624Z,24.20
2023-06-26T01:03:54.231Z,24.12
2023-06-26T01:06:21.698Z,24.18
2023-06-26T01:08:48.279Z,24.13
2023-06-26T01:11:15.669Z,24.08
2023-06-26T01:13:43.082Z,24.07
2023-06-26T01:16:09.677Z,24.05
2023-06-26T01:18:36.318Z,24.02
2023-06-26T01:21:03.013Z,24.00
2023-06-26T01:23:52.765Z,23.98
2023-06-26T01:26:22.660Z,23.97
2023-06-26T01:28:50.483Z,24.03
2023-06-26T01:31:17.079Z,23.94
2023-06-26T01:33:43.721Z,23.93
2023-06-26T01:36:10.353Z,23.92
2023-06-26T01:38:37.094Z,23.90
2023-06-26T01:41:04.649Z,23.86
2023-06-26T01:44:02.382Z,23.82
2023-06-26T01:46:38.423Z,23.81
2023-06-26T01:49:13.894Z,23.80
2023-06-26T01:51:43.233Z,23.73
2023-06-26T01:54:11.323Z,23.71
2023-06-26T01:56:37.915Z,23.77
2023-06-26T01:59:04.556Z,23.80
2023-06-26T02:01:31.171Z,23.77
2023-06-26T02:03:57.854Z,23.66
2023-06-26T02:06:24.514Z,23.62
2023-06-26T02:08:51.119Z,23.69
2023-06-26T02:11:17.773Z,23.65
2023-06-26T02:13:44.417Z,23.58
2023-06-26T02:16:11.102Z,23.59
2023-06-26T02:18:37.714Z,23.58
2023-06-26T02:21:04.682Z,23.54
2023-06-26T02:23:31.403Z,23.50
2023-06-26T02:25:58.114Z,23.42
2023-06-26T02:28:24.936Z,23.42
2023-06-26T02:30:51.571Z,23.37
2023-06-26T02:33:18.254Z,23.36
2023-06-26T02:35:44.973Z,23.38
2023-06-26T02:38:11.610Z,23.36
2023-06-26T02:40:38.657Z,23.37
2023-06-26T02:43:05.688Z,23.39
2023-06-26T02:45:32.290Z,23.38
2023-06-26T02:47:59.021Z,23.29
2023-06-26T02:50:25.718Z,23.29
2023-06-26T02:52:52.365Z,23.21
2023-06-26T02:55:21.570Z,23.22
2023-06-26T02:57:50.387Z,23.18
2023-06-26T03:00:17.211Z,23.18
2023-06-26T03:02:43.878Z,23.13
2023-06-26T03:05:10.749Z,23.13
2023-06-26T03:07:37.395Z,23.06
2023-06-26T03:10:04.001Z,23.10
2023-06-26T03:12:30.644Z,23.13
2023-06-26T03:14:57.228Z,23.12
2023-06-26T03:17:23.901Z,23.11
2023-06-26T03:19:50.641Z,23.08
2023-06-26T03:22:17.327Z,23.03
2023-06-26T03:24:45.190Z,23.00
2023-06-26T03:27:11.858Z,23.03
2023-06-26T03:29:38.484Z,23.10
2023-06-26T03:32:05.428Z,23.13
2023-06-26T03:34:32.084Z,23.13
2023-06-26T03:36:58.729Z,23.06
2023-06-26T03:39:25.318Z,23.09
2023-06-26T03:41:51.949Z,23.03
2023-06-26T03:44:18.609Z,22.96
2023-06-26T03:46:45.286Z,22.91
2023-06-26T03:49:12.027Z,22.87
2023-06-26T03:51:38.745Z,22.90
2023-06-26T03:54:05.407Z,23.02
2023-06-26T03:56:32.053Z,22.97
2023-06-26T03:58:58.709Z,22.94
2023-06-26T04:01:25.411Z,22.86
2023-06-26T04:03:52.112Z,22.85
2023-06-26T04:06:18.741Z,22.86
2023-06-26T04:08:45.319Z,22.88
2023-06-26T04:11:11.918Z,22.91
2023-06-26T04:13:38.793Z,22.90
2023-06-26T04:16:05.442Z,22.94
2023-06-26T04:18:32.033Z,22.97
2023-06-26T04:21:05.920Z,22.93
2023-06-26T04:23:32.568Z,22.94
2023-06-26T04:25:59.483Z,22.98
2023-06-26T04:28:26.390Z,22.98
2023-06-26T04:30:53.077Z,22.94
2023-06-26T04:33:19.731Z,22.96
2023-06-26T04:35:46.392Z,23.01
2023-06-26T04:38:13.036Z,23.05
2023-06-26T04:40:39.833Z,23.09
2023-06-26T04:43:06.558Z,23.18
2023-06-26T04:45:33.393Z,23.26
2023-06-26T04:48:00.083Z,23.22
2023-06-26T04:50:26.904Z,23.23
2023-06-26T04:52:53.557Z,23.35
2023-06-26T04:55:20.241Z,23.39
2023-06-26T04:57:46.832Z,23.51
2023-06-26T05:00:14.192Z,23.56
2023-06-26T05:02:41.047Z,23.51
2023-06-26T05:05:07.873Z,23.70
2023-06-26T05:07:34.497Z,23.74
2023-06-26T05:10:01.108Z,23.78
2023-06-26T05:12:27.686Z,23.77
2023-06-26T05:14:54.265Z,23.88
2023-06-26T05:17:20.937Z,23.98
2023-06-26T05:19:47.576Z,24.06
2023-06-26T05:22:14.358Z,24.06
2023-06-26T05:24:41.168Z,24.10
2023-06-26T05:27:08.249Z,24.22
2023-06-26T05:29:37.886Z,24.27
2023-06-26T05:32:05.758Z,24.40
2023-06-26T05:34:32.404Z,24.44
2023-06-26T05:36:59.643Z,24.52
2023-06-26T05:39:26.644Z,24.59
2023-06-26T05:41:53.381Z,24.60
2023-06-26T05:44:19.973Z,24.70
2023-06-26T05:46:46.878Z,24.79
2023-06-26T05:49:15.308Z,24.86
2023-06-26T05:51:42.262Z,24.89
2023-06-26T05:54:09.188Z,24.95
2023-06-26T05:56:35.878Z,25.07
2023-06-26T05:59:02.569Z,25.10
2023-06-26T06:01:29.235Z,25.11
2023-06-26T06:03:55.869Z,25.13
2023-06-26T06:06:22.512Z,25.24
2023-06-26T06:08:49.868Z,25.33
2023-06-26T06:11:16.611Z,25.40
2023-06-26T06:13:43.201Z,25.49
2023-06-26T06:16:09.854Z,25.63
2023-06-26T06:18:36.455Z,25.72
2023-06-26T06:21:03.076Z,25.80
2023-06-26T06:23:29.707Z,25.87
2023-06-26T06:25:56.373Z,25.92
2023-06-26T06:28:22.997Z,25.93
2023-06-26T06:30:49.853Z,26.05
2023-06-26T06:33:16.768Z,26.13
2023-06-26T06:35:43.421Z,26.12
2023-06-26T06:38:10.009Z,26.18
2023-06-26T06:40:37.111Z,25.94
2023-06-26T06:43:03.918Z,26.00
2023-06-26T06:45:30.556Z,26.12
2023-06-26T06:47:57.280Z,26.23
2023-06-26T06:50:23.930Z,26.33
2023-06-26T06:52:50.623Z,26.43
2023-06-26T06:55:17.287Z,26.53
2023-06-26T06:57:44.054Z,26.64
2023-06-26T07:00:14.288Z,26.71
2023-06-26T07:02:43.398Z,26.82
2023-06-26T07:05:10.073Z,26.87
2023-06-26T07:07:37.145Z,26.97
2023-06-26T07:10:13.894Z,26.96
2023-06-26T07:12:40.575Z,27.04
2023-06-26T07:15:07.636Z,27.06
2023-06-26T07:17:34.753Z,27.09
2023-06-26T07:20:02.306Z,27.14
2023-06-26T07:22:28.984Z,27.14
2023-06-26T07:24:55.645Z,27.18
2023-06-26T07:27:22.283Z,27.22
2023-06-26T07:29:48.959Z,27.29
2023-06-26T07:32:15.926Z,27.33
2023-06-26T07:34:42.791Z,27.38
2023-06-26T07:37:09.456Z,27.38
2023-06-26T07:39:36.328Z,27.35
2023-06-26T07:42:02.936Z,27.36
2023-06-26T07:44:29.555Z,27.35
2023-06-26T07:46:56.238Z,27.39
2023-06-26T07:49:22.983Z,27.45
2023-06-26T07:51:49.632Z,27.47
2023-06-26T07:54:16.242Z,27.46
2023-06-26T07:56:59.474Z,27.50
2023-06-26T07:59:27.166Z,27.53
2023-06-26T08:01:54.361Z,27.59
2023-06-26T08:04:21.531Z,27.65
2023-06-26T08:06:54.835Z,27.70
2023-06-26T08:09:23.773Z,27.72
2023-06-26T08:11:50.435Z,27.83
2023-06-26T08:14:17.149Z,27.84
2023-06-26T08:16:44.117Z,27.91
2023-06-26T08:19:11.212Z,27.94
2023-06-26T08:21:38.068Z,28.02
2023-06-26T08:24:05.922Z,28.12
2023-06-26T08:26:32.615Z,28.27
2023-06-26T08:28:59.301Z,28.30
2023-06-26T08:31:25.949Z,28.39
2023-06-26T08:33:52.619Z,28.47
2023-06-26T08:36:19.286Z,28.56
2023-06-26T08:38:45.856Z,28.65
2023-06-26T08:41:12.423Z,28.67
2023-06-26T08:43:39.011Z,28.73
2023-06-26T08:46:06.452Z,28.80
2023-06-26T08:48:33.554Z,28.93
2023-06-26T08:51:02.205Z,29.02
2023-06-26T08:53:48.782Z,29.07
2023-06-26T08:56:16.221Z,29.17
2023-06-26T08:58:43.992Z,29.25
2023-06-26T09:01:10.793Z,29.29
2023-06-26T09:03:37.443Z,29.40
2023-06-26T09:06:04.119Z,29.44
2023-06-26T09:08:30.709Z,29.45
2023-06-26T09:10:57.716Z,29.50
2023-06-26T09:13:29.957Z,29.48
2023-06-26T09:15:57.210Z,29.54
2023-06-26T09:18:23.988Z,29.60
2023-06-26T09:20:50.845Z,29.62
2023-06-26T09:23:17.618Z,29.60
2023-06-26T09:25:44.231Z,29.54
2023-06-26T09:28:10.865Z,29.54
2023-06-26T09:30:37.781Z,29.48
2023-06-26T09:33:17.894Z,29.42
2023-06-26T09:35:45.138Z,29.36
2023-06-26T09:38:12.473Z,29.25
2023-06-26T09:40:39.414Z,29.25
2023-06-26T09:43:06.645Z,29.28
2023-06-26T09:45:34.297Z,29.27
2023-06-26T09:48:07.333Z,29.31
2023-06-26T09:50:34.245Z,29.27
2023-06-26T09:53:10.400Z,29.33
2023-06-26T09:55:37.154Z,29.27
2023-06-26T09:58:04.984Z,29.40
2023-06-26T10:00:32.438Z,29.42
2023-06-26T10:03:00.381Z,29.42
2023-06-26T10:05:27.197Z,29.54
2023-06-26T10:07:55.050Z,29.60
2023-06-26T10:10:23.411Z,29.71
2023-06-26T10:12:50.205Z,29.80
2023-06-26T10:15:16.867Z,29.92
2023-06-26T10:17:44.028Z,29.99
2023-06-26T10:20:10.835Z,30.10
2023-06-26T10:22:44.964Z,30.23
2023-06-26T10:25:11.617Z,30.44
2023-06-26T10:27:40.850Z,30.67
2023-06-26T10:30:12.325Z,30.82
2023-06-26T10:32:39.038Z,30.93
2023-06-26T10:35:07.287Z,31.11
2023-06-26T10:37:49.536Z,31.24
2023-06-26T10:40:22.792Z,31.12
2023-06-26T10:42:50.958Z,31.09
2023-06-26T10:45:18.574Z,31.03
2023-06-26T10:47:49.083Z,31.02
2023-06-26T10:50:43.388Z,31.06
2023-06-26T10:53:16.692Z,31.10
2023-06-26T10:55:58.644Z,31.11
2023-06-26T10:58:31.538Z,31.15
2023-06-26T11:01:13.190Z,31.12
2023-06-26T11:03:40.269Z,31.05
2023-06-26T11:06:10.288Z,31.07
2023-06-26T11:09:00.766Z,31.04
2023-06-26T11:11:52.429Z,31.16
2023-06-26T11:14:19.336Z,31.18
2023-06-26T11:16:45.919Z,31.36
2023-06-26T11:19:12.542Z,31.43
2023-06-26T11:21:39.130Z,31.55
2023-06-26T11:24:08.667Z,31.67
2023-06-26T11:26:41.659Z,31.77
2023-06-26T11:29:08.318Z,31.90
2023-06-26T11:31:36.024Z,31.96
2023-06-26T11:34:07.159Z,32.07
2023-06-26T11:36:33.754Z,32.15
2023-06-26T11:39:01.425Z,32.27
2023-06-26T11:41:29.301Z,32.36
2023-06-26T11:43:55.937Z,32.46
2023-06-26T11:46:22.870Z,32.49
2023-06-26T11:48:49.789Z,32.55
2023-06-26T11:51:16.555Z,32.69
2023-06-26T11:53:44.143Z,32.76
2023-06-26T11:56:11.414Z,32.74
2023-06-26T11:58:55.770Z,32.67
2023-06-26T12:01:22.419Z,32.69
2023-06-26T12:03:49.652Z,32.80
2023-06-26T12:06:16.636Z,32.82
2023-06-26T12:08:43.289Z,32.95
2023-06-26T12:11:09.929Z,33.01
2023-06-26T12:13:36.526Z,33.14
2023-06-26T12:16:03.193Z,33.30
2023-06-26T12:18:36.310Z,33.44
2023-06-26T12:21:02.994Z,33.49
2023-06-26T12:23:40.088Z,33.38
2023-06-26T12:26:19.922Z,33.58
2023-06-26T12:28:46.717Z,33.60
2023-06-26T12:31:17.521Z,33.62
2023-06-26T12:33:44.657Z,33.73
2023-06-26T12:36:12.420Z,33.74
2023-06-26T12:38:39.277Z,33.83
2023-06-26T12:41:12.740Z,33.81
2023-06-26T12:43:39.568Z,33.78
2023-06-26T12:46:06.273Z,33.63
2023-06-26T12:48:43.464Z,33.63
2023-06-26T12:51:14.157Z,33.59
2023-06-26T12:53:40.819Z,33.41
2023-06-26T12:56:08.090Z,33.38
2023-06-26T12:58:35.396Z,33.28
2023-06-26T13:01:05.901Z,33.19
2023-06-26T13:03:35.285Z,33.13
2023-06-26T13:06:02.045Z,33.13
2023-06-26T13:08:28.634Z,33.09
2023-06-26T13:10:55.232Z,33.03
2023-06-26T13:13:21.916Z,32.99
2023-06-26T13:15:48.661Z,33.01
2023-06-26T13:18:15.316Z,33.03
2023-06-26T13:20:44.553Z,33.03
2023-06-26T13:23:11.232Z,32.97
2023-06-26T13:25:37.905Z,32.96
2023-06-26T13:28:04.611Z,32.95
2023-06-26T13:30:31.214Z,32.91
2023-06-26T13:32:57.919Z,32.81
2023-06-26T13:35:24.606Z,32.74
2023-06-26T13:37:51.280Z,32.76
2023-06-26T13:40:17.914Z,32.71
2023-06-26T13:42:44.527Z,32.63
2023-06-26T13:45:26.242Z,32.59
2023-06-26T13:47:58.053Z,32.51
2023-06-26T13:50:24.741Z,32.38
2023-06-26T13:52:51.414Z,32.44
2023-06-26T13:55:18.591Z,32.57
2023-06-26T13:57:45.285Z,32.65
2023-06-26T14:00:12.597Z,32.63
2023-06-26T14:02:39.386Z,32.74
2023-06-26T14:05:06.262Z,32.84
2023-06-26T14:07:32.969Z,33.01
2023-06-26T14:09:59.704Z,33.27
2023-06-26T14:12:26.351Z,33.46
2023-06-26T14:14:52.996Z,33.49
2023-06-26T14:17:19.691Z,33.67
2023-06-26T14:19:46.389Z,33.82
2023-06-26T14:22:13.051Z,33.96
2023-06-26T14:24:39.762Z,34.19
2023-06-26T14:27:06.374Z,34.35
2023-06-26T14:29:33.065Z,34.38
2023-06-26T14:31:59.675Z,34.56
2023-06-26T14:34:26.396Z,34.68
2023-06-26T14:36:53.048Z,34.90
2023-06-26T14:39:19.626Z,35.17
2023-06-26T14:41:46.731Z,35.37
2023-06-26T14:44:14.236Z,35.63
2023-06-26T14:46:41.421Z,35.95
2023-06-26T14:49:08.577Z,36.30
2023-06-26T14:51:35.152Z,36.58
2023-06-26T14:54:01.911Z,36.88
2023-06-26T14:56:28.645Z,37.26
2023-06-26T14:58:55.481Z,37.47
2023-06-26T15:01:22.115Z,37.79
2023-06-26T15:03:48.870Z,38.18
2023-06-26T15:06:15.689Z,38.49
2023-06-26T15:08:42.373Z,38.71
2023-06-26T15:11:09.031Z,38.99
2023-06-26T15:13:35.626Z,39.18
2023-06-26T15:16:02.348Z,39.59
2023-06-26T15:18:29.044Z,39.93
2023-06-26T15:20:55.653Z,40.30
2023-06-26T15:23:22.253Z,40.41
2023-06-26T15:25:48.891Z,40.50
2023-06-26T15:28:15.541Z,40.79
2023-06-26T15:30:42.308Z,40.91
2023-06-26T15:33:08.986Z,40.91
2023-06-26T15:35:36.408Z,40.77
2023-06-26T15:38:03.020Z,40.60
2023-06-26T15:40:29.619Z,39.51
2023-06-26T15:42:56.260Z,38.17
2023-06-26T15:45:23.190Z,36.95
2023-06-26T15:47:50.068Z,36.63
2023-06-26T15:50:17.070Z,36.47
2023-06-26T15:52:43.701Z,37.25
2023-06-26T15:55:10.353Z,38.02
2023-06-26T15:57:37.067Z,38.61
2023-06-26T16:00:04.847Z,38.29
2023-06-26T16:02:31.825Z,38.55
2023-06-26T16:04:58.572Z,39.43
2023-06-26T16:07:25.386Z,40.20
2023-06-26T16:09:52.032Z,39.45
2023-06-26T16:12:18.727Z,39.07
2023-06-26T16:14:45.412Z,38.68
2023-06-26T16:17:12.050Z,38.18
2023-06-26T16:19:38.702Z,36.41
2023-06-26T16:22:06.528Z,35.51
2023-06-26T16:24:33.292Z,35.96
2023-06-26T16:26:59.949Z,35.01
2023-06-26T16:29:26.612Z,34.74
2023-06-26T16:31:54.208Z,36.25
2023-06-26T16:34:21.554Z,36.74
2023-06-26T16:36:50.675Z,37.61
2023-06-26T16:39:17.496Z,37.75
2023-06-26T16:41:44.129Z,37.68
2023-06-26T16:44:11.039Z,36.59
2023-06-26T16:46:37.721Z,36.32
2023-06-26T16:49:04.387Z,36.19
2023-06-26T16:51:31.013Z,36.47
2023-06-26T16:53:57.668Z,36.29
2023-06-26T16:56:24.344Z,35.54
2023-06-26T16:58:50.947Z,34.87
2023-06-26T17:01:17.632Z,34.16
2023-06-26T17:03:44.236Z,33.89
2023-06-26T17:06:13.256Z,33.26
2023-06-26T17:08:39.905Z,32.99
2023-06-26T17:11:06.802Z,32.59
2023-06-26T17:13:33.461Z,32.53
2023-06-26T17:16:00.144Z,32.35
2023-06-26T17:18:26.787Z,32.31
2023-06-26T17:20:53.369Z,32.17
2023-06-26T17:23:20.020Z,32.00
2023-06-26T17:25:46.639Z,31.69
2023-06-26T17:28:13.272Z,31.48
2023-06-26T17:30:40.164Z,31.27
2023-06-26T17:33:07.095Z,31.18
2023-06-26T17:35:33.692Z,31.26
2023-06-26T17:38:01.066Z,31.28
2023-06-26T17:40:27.701Z,31.27
2023-06-26T17:42:54.538Z,31.17
2023-06-26T17:45:21.209Z,31.08
2023-06-26T17:47:48.976Z,30.93
2023-06-26T17:50:15.670Z,30.75
2023-06-26T17:52:42.274Z,30.71
2023-06-26T17:55:09.759Z,30.71
2023-06-26T17:57:36.427Z,30.75
2023-06-26T18:00:03.100Z,30.62
2023-06-26T18:02:29.930Z,30.46
2023-06-26T18:04:56.642Z,30.42
2023-06-26T18:07:23.382Z,30.39
2023-06-26T18:09:50.099Z,30.07
2023-06-26T18:14:53.999Z,29.74
2023-06-26T18:17:20.696Z,29.70
2023-06-26T18:19:47.325Z,29.59
2023-06-26T18:22:13.977Z,29.67
2023-06-26T18:24:40.566Z,29.65
2023-06-26T18:27:07.499Z,29.55
2023-06-26T18:29:34.188Z,29.55
2023-06-26T18:32:00.789Z,29.53
2023-06-26T18:34:27.440Z,29.50
2023-06-26T18:36:54.371Z,29.51
2023-06-26T18:39:20.953Z,29.50
2023-06-26T18:41:47.624Z,29.41
2023-06-26T18:44:14.521Z,29.43
2023-06-26T18:46:41.133Z,29.35
2023-06-26T18:49:07.744Z,29.30
2023-06-26T18:51:34.424Z,29.15
2023-06-26T18:54:01.193Z,28.90
2023-06-26T18:56:33.278Z,28.97
2023-06-26T18:59:00.008Z,28.95
2023-06-26T19:01:26.675Z,28.68
2023-06-26T19:03:53.462Z,28.73
2023-06-26T19:06:20.137Z,28.72
2023-06-26T19:08:46.766Z,28.71
2023-06-26T19:11:13.399Z,28.62
2023-06-26T19:13:40.047Z,28.63
2023-06-26T19:16:06.766Z,28.54
2023-06-26T19:18:33.505Z,28.59
2023-06-26T19:21:00.264Z,28.57
2023-06-26T19:23:26.869Z,28.57
2023-06-26T19:25:53.552Z,28.57
2023-06-26T19:28:20.267Z,28.53
2023-06-26T19:30:46.896Z,28.42
2023-06-26T19:33:13.603Z,28.45
2023-06-26T19:35:40.482Z,28.46
2023-06-26T19:38:07.327Z,28.17
2023-06-26T19:40:34.957Z,28.19
2023-06-26T19:43:02.291Z,28.09
2023-06-26T19:45:28.932Z,28.09
2023-06-26T19:47:55.691Z,28.00
2023-06-26T19:50:22.531Z,28.02
2023-06-26T19:52:49.344Z,27.99
2023-06-26T19:55:16.075Z,27.87
2023-06-26T19:57:43.196Z,27.84
2023-06-26T20:00:10.980Z,27.78
2023-06-26T20:02:37.762Z,27.76
2023-06-26T20:05:04.526Z,27.65
2023-06-26T20:07:31.299Z,27.67
2023-06-26T20:09:58.007Z,27.63
2023-06-26T20:12:24.670Z,27.49
2023-06-26T20:14:51.387Z,27.31
2023-06-26T20:17:18.031Z,27.39
2023-06-26T20:19:44.843Z,27.39
2023-06-26T20:22:11.476Z,27.43
2023-06-26T20:24:39.335Z,27.56
2023-06-26T20:27:06.013Z,27.37
2023-06-26T20:29:33.023Z,27.42
2023-06-26T20:31:59.745Z,27.36
2023-06-26T20:34:26.434Z,27.43
2023-06-26T20:36:55.382Z,27.37
2023-06-26T20:39:21.993Z,27.32
2023-06-26T20:41:48.878Z,27.14
2023-06-26T20:44:15.690Z,27.34
2023-06-26T20:46:42.560Z,27.16
2023-06-26T20:49:09.374Z,27.02
2023-06-26T20:51:36.109Z,27.06
2023-06-26T20:54:02.823Z,27.17
2023-06-26T20:56:29.418Z,27.17
2023-06-26T20:58:55.986Z,27.26
2023-06-26T21:01:22.681Z,27.16
2023-06-26T21:03:49.362Z,26.97
2023-06-26T21:06:15.985Z,27.07
2023-06-26T21:08:42.594Z,27.07
2023-06-26T21:11:09.231Z,27.13
2023-06-26T21:13:35.878Z,27.11
2023-06-26T21:16:02.531Z,27.13
2023-06-26T21:18:29.228Z,27.02
2023-06-26T21:20:55.823Z,27.08
2023-06-26T21:23:22.482Z,27.08
2023-06-26T21:25:49.081Z,27.00
2023-06-26T21:28:15.715Z,26.99
2023-06-26T21:30:42.316Z,27.00
2023-06-26T21:33:08.996Z,27.00
2023-06-26T21:35:43.451Z,27.10
2023-06-26T21:38:10.990Z,26.95
2023-06-26T21:40:37.676Z,27.00
2023-06-26T21:43:04.310Z,26.94
2023-06-26T21:45:30.933Z,26.85
2023-06-26T21:47:57.845Z,26.85
2023-06-26T21:50:24.521Z,26.90
2023-06-26T21:52:51.133Z,26.79
2023-06-26T21:55:17.732Z,26.78
2023-06-26T21:57:44.371Z,26.80
2023-06-26T22:00:11.267Z,26.77
2023-06-26T22:02:37.920Z,26.66
2023-06-26T22:05:04.964Z,26.65
2023-06-26T22:07:37.432Z,26.67
2023-06-26T22:10:10.324Z,26.59
2023-06-26T22:12:36.991Z,26.60
2023-06-26T22:15:03.921Z,26.60
2023-06-26T22:17:30.899Z,26.68
2023-06-26T22:19:58.485Z,26.77
2023-06-26T22:22:28.086Z,26.64
2023-06-26T22:24:55.120Z,26.67
2023-06-26T22:27:21.750Z,26.65
2023-06-26T22:29:48.341Z,26.63
2023-06-26T22:32:15.270Z,26.61
2023-06-26T22:34:41.890Z,26.61
2023-06-26T22:37:08.541Z,26.57
2023-06-26T22:39:35.207Z,26.56
2023-06-26T22:42:01.889Z,26.60
2023-06-26T22:44:28.546Z,26.55
2023-06-26T22:46:55.188Z,26.51
2023-06-26T22:49:21.805Z,26.45
2023-06-26T22:51:48.428Z,26.29
2023-06-26T22:54:15.096Z,26.29
2023-06-26T22:56:54.550Z,26.24
2023-06-26T22:59:22.003Z,26.05
2023-06-26T23:01:48.753Z,25.86
2023-06-26T23:04:15.412Z,25.97
2023-06-26T23:06:41.996Z,25.85
2023-06-26T23:09:08.623Z,25.87
2023-06-26T23:11:35.280Z,25.85
2023-06-26T23:14:01.924Z,25.74
2023-06-26T23:16:28.570Z,25.66
2023-06-26T23:18:55.151Z,25.68
2023-06-26T23:21:21.789Z,25.63
2023-06-26T23:23:48.630Z,25.61
2023-06-26T23:26:15.278Z,25.66
2023-06-26T23:28:41.864Z,25.70
2023-06-26T23:31:08.557Z,25.74
2023-06-26T23:33:35.316Z,25.81
2023-06-26T23:36:01.915Z,25.86
2023-06-26T23:38:28.581Z,25.78
2023-06-26T23:40:55.243Z,25.81
2023-06-26T23:43:21.876Z,25.76
2023-06-26T23:45:48.572Z,25.66
2023-06-26T23:48:15.200Z,25.63
2023-06-26T23:50:41.776Z,25.53
2023-06-26T23:53:08.462Z,25.33
2023-06-26T23:55:35.095Z,25.34
2023-06-26T23:58:01.773Z,25.48
